Home   Weather   Norway   Tananger   Past weeks
Flag for Norway

Past Weather in Tananger, Norway — Yesterday and Last 2 Weeks

Currently: 43 °F. Partly sunny. (Weather station: Stavanger / Sola, Norway). See more current weather

Past Weather in Tananger — Graph

°F

Tananger Temperature Yesterday

Maximum temperature yesterday: 46 °F (at 11:20 am)
Minimum temperature yesterday: 39 °F (at 4:50 am)
Average temperature yesterday: 43 °F

High & Low Weather Summary for the Past Weeks

 TemperatureHumidityPressure
High64 °F (Apr 19, 12:20 pm)100% (Apr 8, 4:20 pm)30.57 "Hg (Apr 8, 4:20 pm)
Low28 °F (Apr 11, 4:50 am)28% (Apr 16, 12:20 pm)29.21 "Hg (Apr 9, 5:50 am)
Average43 °F68%30.13 "Hg
* Reported Apr 8 8:20 am — Apr 23 8:50 am, Tananger. Weather by CustomWeather, © 2021

Note: Actual official high and low records may vary slightly from our data, if they occured in-between our weather recording intervals... More about our weather records

Tananger Weather History for the Previous 24 Hours

Scroll right to see more
 ConditionsComfort  
Time TempWeatherWind HumidityBarometerVisibility
8:50 am
Fri, Apr 23
43 °FScattered clouds.7 mph81%30.27 "HgN/A
8:20 am41 °FScattered clouds.8 mph87%30.27 "HgN/A
7:50 am43 °FRain showers. Broken clouds.10 mph87%30.27 "HgN/A
7:20 am43 °FBroken clouds.12 mph87%30.27 "HgN/A
6:50 am41 °FBroken clouds.5 mph87%30.27 "HgN/A
6:20 am41 °FDrizzle. Partly sunny.8 mph87%30.27 "HgN/A
5:50 am41 °FPassing clouds.1 mph81%30.27 "HgN/A
5:20 am41 °FPassing clouds.3 mph76%30.27 "HgN/A
4:50 am41 °FPassing clouds.5 mph70%30.27 "HgN/A
4:20 am41 °FPassing clouds.5 mph70%30.27 "HgN/A
3:50 am41 °FClear.6 mph70%30.27 "Hg10 mi
3:20 am41 °FClear.5 mph70%30.27 "Hg10 mi
2:50 am41 °FClear.8 mph70%30.27 "Hg10 mi
2:20 am41 °FClear.9 mph70%30.27 "Hg10 mi
1:50 am41 °FClear.9 mph70%30.27 "Hg10 mi
1:20 am41 °FClear.10 mph70%30.27 "Hg10 mi
12:50 am41 °FClear.12 mph70%30.27 "Hg10 mi
12:20 am41 °FClear.14 mph70%30.27 "Hg10 mi
11:50 pm
Thu, Apr 22
41 °FClear.16 mph70%30.27 "Hg10 mi
11:20 pm41 °FClear.16 mph70%30.24 "Hg10 mi
10:50 pm41 °FClear.17 mph70%30.24 "Hg10 mi
10:20 pm41 °FClear.16 mph70%30.24 "Hg10 mi
9:50 pm41 °FClear.18 mph70%30.24 "Hg10 mi
9:20 pm41 °FClear.17 mph70%30.24 "Hg10 mi
8:50 pm43 °FSunny.23 mph61%30.21 "Hg10 mi
8:20 pm43 °FSunny.22 mph61%30.21 "Hg10 mi
7:50 pm43 °FSunny.23 mph61%30.21 "Hg10 mi
7:20 pm45 °FSunny.24 mph53%30.21 "Hg10 mi
6:50 pm45 °FSunny.28 mph53%30.18 "Hg10 mi
6:20 pm45 °FSunny.26 mph53%30.18 "Hg10 mi
5:50 pm45 °FPassing clouds.26 mph53%30.18 "HgN/A
5:20 pm46 °FPassing clouds.26 mph53%30.18 "HgN/A
4:50 pm46 °FPassing clouds.25 mph53%30.18 "HgN/A
4:20 pm46 °FPassing clouds.24 mph53%30.18 "HgN/A
3:50 pm46 °FPassing clouds.24 mph53%30.18 "HgN/A
3:20 pm46 °FPassing clouds.24 mph50%30.18 "HgN/A
2:50 pm46 °FPassing clouds.25 mph53%30.18 "HgN/A
2:20 pm46 °FPassing clouds.24 mph53%30.18 "HgN/A
1:50 pm46 °FPassing clouds.24 mph53%N/AN/A
1:20 pm46 °FPassing clouds.24 mph53%30.15 "HgN/A
12:50 pm46 °FPassing clouds.25 mph57%30.15 "HgN/A
12:20 pm46 °FPassing clouds.25 mph57%30.15 "HgN/A
11:50 am46 °FPassing clouds.23 mph57%30.15 "HgN/A
11:20 am46 °FPassing clouds.22 mph57%30.15 "HgN/A
10:50 am45 °FPassing clouds.21 mph61%30.15 "HgN/A
10:20 am45 °FPassing clouds.18 mph61%30.12 "HgN/A
9:50 am45 °FPassing clouds.17 mph66%30.12 "HgN/A
9:20 am45 °FPassing clouds.14 mph71%30.12 "HgN/A
Weather by CustomWeather, © 2021

See weather overview